Time;durP1;ratioP1;P1;durP2;ratioP2;P2;SDS_P1;SDS_P2;PMS_P1;PMS_P2;Temp;Humidity;BMP_temperature;BMP_pressure;BME280_temperature;BME280_humidity;BME280_pressure;Samples;Min_cycle;Max_cycle;Signal;HPM_P1;HPM_P2
2022/11/19 00:00:17;;;;;;;4.60;1.27;;;19.70;51.90;;;;;;5106089;28;20074;-61
2022/11/19 00:02:45;;;;;;;2.17;0.50;;;19.70;52.00;;;;;;5099402;28;20050;-60
2022/11/19 00:05:12;;;;;;;0.98;0.20;;;19.70;52.10;;;;;;5109421;28;20036;-60
2022/11/19 00:07:39;;;;;;;0.73;0.20;;;19.80;52.10;;;;;;5110086;28;20708;-60
2022/11/19 00:10:06;;;;;;;2.15;0.50;;;19.80;52.00;;;;;;5107022;27;20055;-59
2022/11/19 00:15:18;;;;;;;0.90;0.10;;;19.80;52.00;;;;;;5109843;28;20040;-60
2022/11/19 00:17:46;;;;;;;1.83;0.43;;;19.70;51.90;;;;;;5109535;28;20047;-60
2022/11/19 00:20:14;;;;;;;3.20;0.40;;;19.70;51.90;;;;;;5109390;28;20122;-59
2022/11/19 00:22:41;;;;;;;1.45;0.30;;;19.70;51.90;;;;;;5110111;27;20070;-61
2022/11/19 00:25:08;;;;;;;2.05;0.38;;;19.70;51.80;;;;;;5091231;28;20047;-63
2022/11/19 00:27:36;;;;;;;0.50;0.30;;;19.70;51.90;;;;;;5109204;28;20043;-62
2022/11/19 00:30:03;;;;;;;1.27;0.10;;;19.70;52.00;;;;;;5109338;28;20500;-62
2022/11/19 00:32:31;;;;;;;1.13;0.28;;;19.70;51.90;;;;;;5104929;28;20128;-61
2022/11/19 00:34:59;;;;;;;3.50;0.17;;;19.70;51.90;;;;;;5108223;28;20134;-61
2022/11/19 00:37:26;;;;;;;2.03;0.28;;;19.70;52.00;;;;;;5090842;28;20403;-62
2022/11/19 00:39:53;;;;;;;2.67;0.15;;;19.70;51.90;;;;;;5109173;28;20120;-61
2022/11/19 00:42:20;;;;;;;1.85;0.10;;;19.70;51.80;;;;;;5108841;28;20043;-63
2022/11/19 00:44:47;;;;;;;3.30;0.28;;;19.70;51.80;;;;;;5108952;28;20048;-61
2022/11/19 00:47:14;;;;;;;1.75;0.60;;;19.70;51.90;;;;;;5109142;28;20031;-61
2022/11/19 00:49:41;;;;;;;2.70;0.50;;;19.70;51.80;;;;;;5108886;28;20492;-62
2022/11/19 00:52:10;;;;;;;2.38;0.63;;;19.70;51.90;;;;;;5108784;28;20062;-61
2022/11/19 00:54:37;;;;;;;2.83;0.45;;;19.70;51.90;;;;;;5109152;28;20138;-61
2022/11/19 00:57:04;;;;;;;3.53;0.32;;;19.70;51.90;;;;;;5108462;28;20046;-61
2022/11/19 00:59:31;;;;;;;1.08;0.30;;;19.70;51.80;;;;;;5108939;28;20063;-61
2022/11/19 01:01:58;;;;;;;2.00;0.30;;;19.70;51.80;;;;;;5099903;28;20406;-61
2022/11/19 01:04:25;;;;;;;0.77;0.20;;;19.70;51.90;;;;;;5103172;28;20050;-61
2022/11/19 01:06:52;;;;;;;0.50;0.30;;;19.70;51.90;;;;;;5108472;28;20039;-61
2022/11/19 01:09:20;;;;;;;2.40;0.20;;;19.70;51.90;;;;;;5103026;28;20119;-61
2022/11/19 01:11:47;;;;;;;1.08;0.20;;;19.60;51.80;;;;;;5108253;28;20062;-58
2022/11/19 01:14:14;;;;;;;0.70;0.30;;;19.70;51.80;;;;;;5108367;28;20122;-61
2022/11/19 01:16:42;;;;;;;1.65;0.17;;;19.60;51.80;;;;;;5107951;28;20036;-63
2022/11/19 01:19:14;;;;;;;0.80;0.52;;;19.60;51.70;;;;;;5108340;28;20131;-61
2022/11/19 01:21:42;;;;;;;2.05;0.20;;;19.60;51.80;;;;;;5105990;28;20138;-60
2022/11/19 01:24:09;;;;;;;1.25;0.20;;;19.60;51.90;;;;;;5108976;27;20083;-62
2022/11/19 01:26:37;;;;;;;0.73;0.10;;;19.60;51.70;;;;;;5108113;28;20085;-60
2022/11/19 01:29:04;;;;;;;0.10;0.10;;;19.60;51.70;;;;;;5091621;28;20035;-61
2022/11/19 01:31:31;;;;;;;1.42;0.20;;;19.60;51.70;;;;;;5108275;28;20044;-61
2022/11/19 01:33:59;;;;;;;2.15;0.22;;;19.60;51.70;;;;;;5108220;28;20055;-62
2022/11/19 01:36:28;;;;;;;2.50;0.10;;;19.60;51.80;;;;;;5107876;28;20404;-62
2022/11/19 01:38:56;;;;;;;0.82;0.35;;;19.60;51.80;;;;;;5107876;28;20054;-59
2022/11/19 01:41:26;;;;;;;3.75;0.30;;;19.60;51.70;;;;;;5108346;28;20104;-61
2022/11/19 01:43:57;;;;;;;2.28;0.15;;;19.60;52.10;;;;;;5108237;28;20089;-60
2022/11/19 01:46:27;;;;;;;0.43;0.30;;;19.60;51.50;;;;;;5108548;28;20039;-59
2022/11/19 01:48:58;;;;;;;3.05;0.20;;;19.70;51.40;;;;;;5108178;28;20071;-59
2022/11/19 01:51:29;;;;;;;2.30;0.10;;;19.70;51.40;;;;;;5108102;28;20054;-59
2022/11/19 01:54:00;;;;;;;5.00;0.75;;;19.70;51.30;;;;;;5108261;28;20057;-61
2022/11/19 01:56:29;;;;;;;3.45;0.10;;;19.70;51.20;;;;;;5108790;28;20048;-59
2022/11/19 01:59:03;;;;;;;2.58;0.85;;;19.70;51.30;;;;;;5108397;28;20508;-59
2022/11/19 02:01:31;;;;;;;4.30;0.38;;;19.70;51.30;;;;;;5107936;28;20061;-60
2022/11/19 02:04:00;;;;;;;0.93;0.13;;;19.70;51.20;;;;;;5108211;28;20028;-58
2022/11/19 02:06:28;;;;;;;2.30;0.15;;;19.70;51.30;;;;;;5108406;28;20071;-60
2022/11/19 02:08:55;;;;;;;1.05;0.20;;;19.70;51.70;;;;;;5120168;28;20043;-60
2022/11/19 02:11:39;;;;;;;0.20;0.10;;;19.70;51.20;;;;;;5092001;28;20756;-60
2022/11/19 02:14:24;;;;;;;0.60;0.20;;;19.70;51.20;;;;;;5091826;28;20139;-60
2022/11/19 02:17:02;;;;;;;2.28;0.47;;;19.60;51.10;;;;;;5088073;28;20052;-60
2022/11/19 02:20:04;;;;;;;3.70;0.30;;;19.70;51.30;;;;;;5089145;28;20048;-60
2022/11/19 02:22:55;;;;;;;0.45;0.38;;;19.70;51.20;;;;;;5044990;28;20037;-59
2022/11/19 02:25:37;;;;;;;1.38;0.20;;;19.60;51.40;;;;;;5045371;28;20064;-60
2022/11/19 02:28:28;;;;;;;0.65;0.10;;;19.60;51.40;;;;;;5046230;28;20041;-58
2022/11/19 02:31:04;;;;;;;1.30;0.13;;;19.60;51.30;;;;;;5032736;28;20816;-60
2022/11/19 02:33:39;;;;;;;1.17;0.20;;;19.60;51.40;;;;;;5049289;28;20049;-60
2022/11/19 02:36:14;;;;;;;1.98;0.32;;;19.50;51.40;;;;;;5049130;28;20147;-59
2022/11/19 02:38:48;;;;;;;2.45;0.40;;;19.60;51.40;;;;;;5048616;28;20079;-60
2022/11/19 02:41:36;;;;;;;0.57;0.32;;;19.50;51.50;;;;;;5048723;28;20055;-60
2022/11/19 02:47:01;;;;;;;0.40;0.20;;;19.50;51.20;;;;;;5048631;28;20048;-60
2022/11/19 02:49:31;;;;;;;1.00;0.20;;;19.50;51.40;;;;;;5048324;28;20037;-60
2022/11/19 02:51:58;;;;;;;2.67;0.10;;;19.40;51.40;;;;;;5047860;28;20052;-60
2022/11/19 02:54:26;;;;;;;1.00;0.50;;;19.40;51.40;;;;;;5048561;28;20053;-60
2022/11/19 02:56:57;;;;;;;1.52;0.35;;;19.40;51.40;;;;;;5048044;28;20067;-60
2022/11/19 03:05:03;;;;;;;0.65;0.10;;;19.40;51.60;;;;;;5048338;28;20552;-60
2022/11/19 03:07:30;;;;;;;0.70;0.30;;;19.40;51.50;;;;;;5047854;28;20048;-60
2022/11/19 03:10:00;;;;;;;0.30;0.30;;;19.40;51.60;;;;;;5048516;28;20055;-60
2022/11/19 03:12:39;;;;;;;2.60;0.17;;;19.40;51.70;;;;;;5065825;28;20275;-60
2022/11/19 03:18:06;;;;;;;2.25;0.52;;;19.40;51.80;;;;;;5068363;28;20076;-60
2022/11/19 03:20:38;;;;;;;1.95;0.20;;;19.40;51.60;;;;;;5051134;28;20571;-60
2022/11/19 03:23:12;;;;;;;1.17;0.20;;;19.30;51.60;;;;;;5068077;28;20131;-60
2022/11/19 03:25:44;;;;;;;0.30;0.30;;;19.40;51.60;;;;;;5067654;28;20044;-60
2022/11/19 03:28:14;;;;;;;1.95;0.10;;;19.30;51.50;;;;;;5067809;28;20053;-60
2022/11/19 03:30:44;;;;;;;4.15;0.40;;;19.30;51.60;;;;;;5067783;28;20135;-60
2022/11/19 03:33:17;;;;;;;1.27;0.20;;;19.30;51.60;;;;;;5067768;28;20041;-60
2022/11/19 03:35:51;;;;;;;0.88;0.10;;;19.30;51.70;;;;;;5067454;28;20052;-60
2022/11/19 03:38:24;;;;;;;5.93;1.02;;;19.30;51.90;;;;;;5068554;28;20044;-60
2022/11/19 03:40:54;;;;;;;0.20;0.10;;;19.30;51.90;;;;;;5109928;28;20100;-61
2022/11/19 03:43:25;;;;;;;2.10;0.10;;;19.30;51.90;;;;;;5110688;28;20055;-60
2022/11/19 03:45:56;;;;;;;0.65;0.10;;;19.30;52.00;;;;;;5103317;28;20060;-59
2022/11/19 03:48:25;;;;;;;0.68;0.68;;;19.30;51.90;;;;;;5094026;28;20118;-60
2022/11/19 03:50:57;;;;;;;0.40;0.10;;;19.30;51.80;;;;;;5090162;28;20036;-61
2022/11/19 03:53:25;;;;;;;1.23;0.20;;;19.30;51.80;;;;;;5110486;28;20075;-57
2022/11/19 03:55:56;;;;;;;1.65;0.30;;;19.30;51.90;;;;;;5110537;28;20038;-60
2022/11/19 03:58:24;;;;;;;0.45;0.13;;;19.30;51.70;;;;;;5110571;28;20061;-60
2022/11/19 04:00:52;;;;;;;2.17;0.13;;;19.30;51.80;;;;;;5110453;28;20031;-61
2022/11/19 04:03:20;;;;;;;0.30;0.20;;;19.30;51.90;;;;;;5110547;28;20731;-61
2022/11/19 04:05:48;;;;;;;1.05;0.38;;;19.30;51.80;;;;;;5110208;28;20047;-60
2022/11/19 04:08:15;;;;;;;0.35;0.10;;;19.30;51.80;;;;;;5110284;28;20135;-60
2022/11/19 04:10:42;;;;;;;0.65;0.20;;;19.20;51.70;;;;;;5110275;28;20403;-60
2022/11/19 04:13:09;;;;;;;2.17;0.40;;;19.20;51.80;;;;;;5091772;28;20103;-59
2022/11/19 04:15:36;;;;;;;0.10;0.10;;;19.20;51.80;;;;;;5101508;27;20046;-60
2022/11/19 04:18:03;;;;;;;0.82;0.25;;;19.20;51.80;;;;;;5089484;28;20052;-61
2022/11/19 04:20:30;;;;;;;1.10;0.20;;;19.20;51.80;;;;;;5089687;28;20062;-59
2022/11/19 04:22:59;;;;;;;1.08;0.10;;;19.20;51.90;;;;;;5089665;28;20101;-59
2022/11/19 04:25:26;;;;;;;1.67;0.10;;;19.20;52.00;;;;;;5071412;28;20140;-59
2022/11/19 04:27:53;;;;;;;2.20;0.40;;;19.20;52.10;;;;;;5089649;28;20044;-61
2022/11/19 04:30:20;;;;;;;2.13;0.47;;;19.20;52.10;;;;;;5089450;28;20048;-61
2022/11/19 04:32:47;;;;;;;0.32;0.20;;;19.20;52.20;;;;;;5071469;28;20058;-61
2022/11/19 04:35:16;;;;;;;0.30;0.10;;;19.20;52.30;;;;;;5089199;28;20040;-61
2022/11/19 04:37:44;;;;;;;1.52;0.52;;;19.20;52.40;;;;;;5089191;28;20114;-61
2022/11/19 04:40:13;;;;;;;1.75;0.10;;;19.20;52.40;;;;;;5089350;28;20047;-61
2022/11/19 04:42:40;;;;;;;0.73;0.10;;;19.20;52.50;;;;;;5089342;28;20131;-61
2022/11/19 04:45:09;;;;;;;1.48;0.17;;;19.20;52.50;;;;;;5094737;28;20043;-59
2022/11/19 04:47:36;;;;;;;0.40;0.10;;;19.20;52.40;;;;;;5109191;28;20043;-60
2022/11/19 04:50:04;;;;;;;1.27;0.10;;;19.20;52.70;;;;;;5109921;28;20051;-60
2022/11/19 04:52:32;;;;;;;1.17;0.10;;;19.20;52.20;;;;;;5108209;28;20048;-61
2022/11/19 04:54:59;;;;;;;0.60;0.10;;;19.20;52.30;;;;;;5109441;28;20438;-61
2022/11/19 04:57:27;;;;;;;3.25;0.20;;;19.20;52.30;;;;;;5109560;28;20123;-60
2022/11/19 04:59:54;;;;;;;1.35;0.57;;;19.20;52.40;;;;;;5109058;28;20415;-60
2022/11/19 05:02:21;;;;;;;1.58;0.52;;;19.20;52.30;;;;;;5108674;28;20036;-60
2022/11/19 05:04:48;;;;;;;2.03;0.20;;;19.20;52.40;;;;;;5104230;28;20046;-61
2022/11/19 05:07:15;;;;;;;0.43;0.43;;;19.20;52.30;;;;;;5089065;28;20047;-61
2022/11/19 05:09:42;;;;;;;4.20;0.28;;;19.20;52.30;;;;;;5088731;28;20040;-61
2022/11/19 05:12:09;;;;;;;0.55;0.10;;;19.20;52.30;;;;;;5104444;28;20155;-61
2022/11/19 05:14:38;;;;;;;3.20;0.35;;;19.20;52.20;;;;;;5108851;28;20051;-61
2022/11/19 05:17:05;;;;;;;1.55;0.10;;;19.20;52.30;;;;;;5108717;28;20079;-62
2022/11/19 05:19:32;;;;;;;1.30;0.10;;;19.20;52.10;;;;;;5109135;28;20062;-61
2022/11/19 05:21:59;;;;;;;1.38;0.65;;;19.20;52.20;;;;;;5109127;28;20122;-62
2022/11/19 05:24:26;;;;;;;1.25;0.20;;;19.20;52.20;;;;;;5109000;28;20065;-61
2022/11/19 05:26:53;;;;;;;0.82;0.20;;;19.20;52.20;;;;;;5108868;28;20040;-60
2022/11/19 05:29:20;;;;;;;1.33;0.17;;;19.20;52.30;;;;;;5090898;28;20407;-60
2022/11/19 05:31:48;;;;;;;0.35;0.35;;;19.20;52.30;;;;;;5108249;28;20040;-61
2022/11/19 05:34:15;;;;;;;2.35;0.30;;;19.20;52.30;;;;;;5108751;28;20044;-60
2022/11/19 05:36:42;;;;;;;0.57;0.10;;;19.20;52.30;;;;;;5108726;28;20052;-60
2022/11/19 05:39:09;;;;;;;0.95;0.20;;;19.20;52.30;;;;;;5096746;28;20058;-60
2022/11/19 05:41:36;;;;;;;1.35;1.10;;;19.20;52.30;;;;;;5105983;28;20071;-59
2022/11/19 05:44:03;;;;;;;2.38;0.25;;;19.20;52.40;;;;;;5097962;28;20140;-61
2022/11/19 05:46:31;;;;;;;1.85;0.13;;;19.20;51.80;;;;;;5097812;28;20040;-61
2022/11/19 05:48:59;;;;;;;1.85;0.10;;;19.20;52.30;;;;;;5106062;28;20039;-63
2022/11/19 05:51:26;;;;;;;1.88;0.17;;;19.20;52.80;;;;;;5105966;28;20043;-69
2022/11/19 05:53:53;;;;;;;1.45;0.20;;;19.20;53.10;;;;;;5104735;28;20040;-67
2022/11/19 05:56:20;;;;;;;1.33;0.10;;;19.20;53.30;;;;;;5108517;28;20396;-71
2022/11/19 05:58:47;;;;;;;1.17;0.17;;;19.30;53.30;;;;;;5108967;28;20075;-69
2022/11/19 06:01:14;;;;;;;2.20;0.20;;;19.40;53.40;;;;;;5103490;28;20362;-60
2022/11/19 06:03:41;;;;;;;5.05;0.35;;;19.40;53.40;;;;;;5089381;28;20032;-57
2022/11/19 06:06:10;;;;;;;0.30;0.10;;;19.40;53.30;;;;;;5107822;28;20438;-55
2022/11/19 06:08:37;;;;;;;2.60;0.10;;;19.50;53.30;;;;;;5102043;28;20047;-57
2022/11/19 06:11:04;;;;;;;0.88;0.55;;;19.50;53.20;;;;;;5090926;28;20047;-53
2022/11/19 06:13:31;;;;;;;3.30;0.35;;;19.60;53.10;;;;;;5107864;28;20404;-54
2022/11/19 06:15:58;;;;;;;3.15;0.15;;;19.60;53.00;;;;;;5107183;28;20128;-49
2022/11/19 06:18:25;;;;;;;7.03;0.10;;;19.70;53.10;;;;;;5108305;28;20380;-50
2022/11/19 06:20:52;;;;;;;6.82;0.55;;;19.70;52.50;;;;;;5107904;28;20044;-47
2022/11/19 06:23:20;;;;;;;3.25;0.20;;;19.70;52.20;;;;;;5108332;28;20042;-51
2022/11/19 06:25:49;;;;;;;3.70;0.30;;;19.80;52.40;;;;;;5108392;28;20043;-51
2022/11/19 06:28:16;;;;;;;3.47;0.30;;;19.80;52.30;;;;;;5108192;28;20385;-52
2022/11/19 06:30:43;;;;;;;7.25;0.73;;;19.80;52.10;;;;;;5107632;28;20142;-54
2022/11/19 06:33:10;;;;;;;6.28;0.50;;;19.80;52.00;;;;;;5107961;28;20052;-52
2022/11/19 06:35:37;;;;;;;1.67;0.47;;;19.80;51.80;;;;;;5107863;28;20761;-54
2022/11/19 06:38:04;;;;;;;2.15;0.10;;;19.80;51.60;;;;;;5107792;28;20496;-51
2022/11/19 06:40:32;;;;;;;2.38;0.50;;;19.80;51.50;;;;;;5108325;28;20036;-54
2022/11/19 06:42:59;;;;;;;1.92;0.68;;;19.80;52.00;;;;;;5101582;28;20521;-49
2022/11/19 06:45:26;;;;;;;2.58;0.52;;;19.80;51.20;;;;;;5093881;28;20131;-53
2022/11/19 06:47:53;;;;;;;4.50;0.30;;;19.80;51.20;;;;;;5107609;28;20036;-55
2022/11/19 06:50:20;;;;;;;5.90;0.30;;;19.80;51.00;;;;;;5107793;28;20096;-54
2022/11/19 06:52:47;;;;;;;2.00;0.20;;;19.80;50.90;;;;;;5089322;28;20751;-51
2022/11/19 06:55:14;;;;;;;2.25;0.10;;;19.80;50.70;;;;;;5107880;28;20044;-53
2022/11/19 06:57:43;;;;;;;2.30;0.20;;;19.80;50.50;;;;;;5107786;28;20505;-53
2022/11/19 07:00:11;;;;;;;1.38;0.47;;;19.80;50.30;;;;;;5107472;28;20056;-50
2022/11/19 07:02:38;;;;;;;0.90;0.20;;;19.80;50.30;;;;;;5107773;28;20070;-53
2022/11/19 07:05:06;;;;;;;1.20;0.43;;;19.80;50.20;;;;;;5107720;28;20135;-54
2022/11/19 07:07:34;;;;;;;0.40;0.10;;;19.80;50.10;;;;;;5107658;28;20039;-51
2022/11/19 07:10:01;;;;;;;1.05;0.15;;;19.80;49.90;;;;;;5089617;28;20533;-55
2022/11/19 07:12:28;;;;;;;4.22;0.20;;;19.80;49.80;;;;;;5107052;28;20046;-54
2022/11/19 07:14:56;;;;;;;3.25;0.82;;;19.80;49.70;;;;;;5108172;28;20086;-52
2022/11/19 07:17:23;;;;;;;2.03;0.20;;;19.80;49.70;;;;;;5111033;28;20036;-54
2022/11/19 07:19:50;;;;;;;1.10;0.20;;;19.80;49.50;;;;;;5111507;28;20109;-52
2022/11/19 07:22:17;;;;;;;1.38;1.05;;;19.80;49.40;;;;;;5111294;28;20062;-54
2022/11/19 07:24:44;;;;;;;1.50;0.20;;;19.80;49.40;;;;;;5111280;28;20070;-51
2022/11/19 07:27:11;;;;;;;3.30;0.10;;;19.80;49.40;;;;;;5110824;28;20055;-55
2022/11/19 07:29:38;;;;;;;1.75;0.70;;;19.70;49.30;;;;;;5093103;28;20039;-53
2022/11/19 07:32:07;;;;;;;3.63;0.20;;;19.80;49.30;;;;;;5099844;28;20494;-54
2022/11/19 07:34:34;;;;;;;0.30;0.30;;;19.70;49.20;;;;;;5091096;28;20127;-55
2022/11/19 07:37:01;;;;;;;1.65;0.10;;;19.70;49.20;;;;;;5090340;28;20038;-52
2022/11/19 07:39:28;;;;;;;4.53;0.75;;;19.70;49.30;;;;;;5113221;27;20112;-53
2022/11/19 07:44:41;;;;;;;2.33;0.30;;;19.70;49.30;;;;;;5129518;27;20047;-52
2022/11/19 07:47:10;;;;;;;0.50;0.13;;;19.60;49.20;;;;;;5110851;28;20039;-55
2022/11/19 07:49:37;;;;;;;0.17;0.10;;;19.60;49.20;;;;;;5110895;28;20119;-53
2022/11/19 07:52:04;;;;;;;2.50;0.43;;;19.60;49.20;;;;;;5110787;28;20028;-55
2022/11/19 07:54:31;;;;;;;0.55;0.10;;;19.60;49.40;;;;;;5110993;28;20035;-50
2022/11/19 07:56:58;;;;;;;0.75;0.50;;;19.60;49.50;;;;;;5110806;28;20042;-53
2022/11/19 07:59:26;;;;;;;3.35;0.10;;;19.60;49.60;;;;;;5110685;28;20172;-51
2022/11/19 08:01:53;;;;;;;1.05;0.30;;;19.60;49.70;;;;;;5110446;28;20044;-55
2022/11/19 08:04:22;;;;;;;2.55;0.20;;;19.60;49.70;;;;;;5110661;28;20052;-53
2022/11/19 08:06:49;;;;;;;0.13;0.10;;;19.50;49.70;;;;;;5110504;28;20039;-55
2022/11/19 08:09:16;;;;;;;0.70;0.17;;;19.50;49.80;;;;;;5110578;28;20237;-52
2022/11/19 08:11:43;;;;;;;0.55;0.10;;;19.50;49.90;;;;;;5110194;28;20043;-52
2022/11/19 08:14:12;;;;;;;0.10;0.10;;;19.50;49.80;;;;;;5110171;28;20048;-50
2022/11/19 08:19:25;;;;;;;2.47;0.20;;;19.50;49.90;;;;;;5105909;28;20121;-54
2022/11/19 08:21:52;;;;;;;0.75;0.10;;;19.50;50.00;;;;;;5089670;28;20044;-51
2022/11/19 08:24:20;;;;;;;2.10;0.20;;;19.50;50.00;;;;;;5089775;28;20486;-50
2022/11/19 08:26:48;;;;;;;0.35;0.10;;;19.50;50.00;;;;;;5089116;28;20044;-53
2022/11/19 08:29:17;;;;;;;2.53;0.10;;;19.50;50.10;;;;;;5089760;28;20133;-49
2022/11/19 08:31:47;;;;;;;1.98;0.10;;;19.50;50.10;;;;;;5071250;28;20068;-51
2022/11/19 08:34:14;;;;;;;1.77;0.13;;;19.50;50.00;;;;;;5099476;27;20051;-53
2022/11/19 08:36:42;;;;;;;0.40;0.20;;;19.50;49.80;;;;;;5130299;27;20099;-49
2022/11/19 08:39:10;;;;;;;1.13;0.13;;;19.40;49.70;;;;;;5130329;27;20043;-49
2022/11/19 08:44:22;;;;;;;4.03;0.20;;;19.50;49.70;;;;;;5130044;27;20048;-50
2022/11/19 08:46:49;;;;;;;0.80;0.25;;;19.40;49.50;;;;;;5109727;27;20504;-53
2022/11/19 08:49:16;;;;;;;2.95;0.10;;;19.40;49.50;;;;;;5109822;28;20046;-51
2022/11/19 08:51:44;;;;;;;0.10;0.10;;;19.40;49.50;;;;;;5109529;28;20035;-53
2022/11/19 08:54:12;;;;;;;0.50;0.20;;;19.40;49.50;;;;;;5109005;28;20916;-53
2022/11/19 08:56:39;;;;;;;0.45;0.10;;;19.40;49.40;;;;;;5109357;28;20097;-52
2022/11/19 08:59:06;;;;;;;2.10;0.60;;;19.40;49.40;;;;;;5109025;28;20123;-51
2022/11/19 09:01:33;;;;;;;2.38;0.30;;;19.40;49.40;;;;;;5090879;28;20058;-51
2022/11/19 09:04:00;;;;;;;1.10;0.10;;;19.40;49.40;;;;;;5109213;28;20605;-53
2022/11/19 09:06:27;;;;;;;0.35;0.10;;;19.40;49.40;;;;;;5109363;28;20575;-56
2022/11/19 09:08:57;;;;;;;1.77;0.20;;;19.40;49.40;;;;;;5091792;28;20047;-55
2022/11/19 09:11:24;;;;;;;0.73;0.28;;;19.40;49.40;;;;;;5098121;28;20142;-53
2022/11/19 09:13:51;;;;;;;1.27;0.10;;;19.40;49.90;;;;;;5109234;28;20044;-50
2022/11/19 09:16:18;;;;;;;0.73;0.10;;;19.40;49.40;;;;;;5108771;28;20047;-53
2022/11/19 09:18:45;;;;;;;1.40;0.10;;;19.40;49.30;;;;;;5108930;28;20050;-49
2022/11/19 09:21:12;;;;;;;0.52;0.52;;;19.40;49.40;;;;;;5109105;28;20827;-51
2022/11/19 09:23:41;;;;;;;0.55;0.43;;;19.40;49.50;;;;;;5108675;28;20592;-50
2022/11/19 09:26:12;;;;;;;1.45;0.10;;;19.40;49.40;;;;;;5108797;28;20063;-55
2022/11/19 09:28:39;;;;;;;0.60;0.20;;;19.40;49.40;;;;;;5090709;28;20067;-54
2022/11/19 09:31:08;;;;;;;0.50;0.10;;;19.40;49.70;;;;;;5108960;28;20043;-53
2022/11/19 09:33:38;;;;;;;0.52;0.10;;;19.40;49.50;;;;;;5108654;28;20130;-53
2022/11/19 09:36:06;;;;;;;0.20;0.10;;;19.40;49.40;;;;;;5108657;28;20039;-50
2022/11/19 09:38:33;;;;;;;0.35;0.30;;;19.40;49.60;;;;;;5107755;28;20069;-50
2022/11/19 09:41:21;;;;;;;1.17;0.38;;;19.40;49.50;;;;;;5108635;28;20043;-51
2022/11/19 09:43:56;;;;;;;2.35;0.25;;;19.40;49.50;;;;;;5108529;28;20146;-51
2022/11/19 09:46:29;;;;;;;2.63;0.10;;;19.40;49.60;;;;;;5108399;28;20049;-50
2022/11/19 09:49:02;;;;;;;0.77;0.75;;;19.40;49.50;;;;;;5108564;28;20350;-50
2022/11/19 09:51:33;;;;;;;1.70;0.57;;;19.40;49.60;;;;;;5108520;28;20032;-52
2022/11/19 09:54:04;;;;;;;0.22;0.22;;;19.40;49.60;;;;;;5108057;28;20134;-51
2022/11/19 09:56:36;;;;;;;2.58;0.52;;;19.40;49.60;;;;;;5099433;28;20036;-53
2022/11/19 09:59:12;;;;;;;1.58;0.10;;;19.50;49.80;;;;;;5088095;28;20131;-50
2022/11/19 10:01:40;;;;;;;0.38;0.20;;;19.40;49.70;;;;;;5087886;28;20131;-52
2022/11/19 10:04:07;;;;;;;2.80;0.20;;;19.40;49.80;;;;;;5087881;28;20040;-49
2022/11/19 10:06:45;;;;;;;0.63;0.20;;;19.50;49.80;;;;;;5087697;28;20128;-52
2022/11/19 10:09:30;;;;;;;0.30;0.10;;;19.50;49.80;;;;;;5088208;28;20044;-54
2022/11/19 10:12:11;;;;;;;1.05;0.10;;;19.50;49.80;;;;;;5083789;28;20050;-55
2022/11/19 10:14:49;;;;;;;0.63;0.10;;;19.50;49.70;;;;;;5122538;28;20082;-54
2022/11/19 10:17:26;;;;;;;4.78;0.20;;;19.50;49.70;;;;;;5108055;28;20066;-50
2022/11/19 10:20:13;;;;;;;1.23;0.10;;;19.50;49.70;;;;;;5108350;28;20046;-54
2022/11/19 10:22:47;;;;;;;1.05;0.20;;;19.60;49.70;;;;;;5124248;28;20069;-52
2022/11/19 10:25:17;;;;;;;0.98;0.10;;;19.50;49.60;;;;;;5110857;28;20078;-54
2022/11/19 10:27:50;;;;;;;1.13;0.13;;;19.50;49.60;;;;;;5125152;28;20048;-53
2022/11/19 10:30:20;;;;;;;1.40;0.20;;;19.60;49.60;;;;;;5110582;28;20046;-51
2022/11/19 10:32:55;;;;;;;0.32;0.32;;;19.60;49.60;;;;;;5128707;28;20058;-51
2022/11/19 10:35:27;;;;;;;5.57;0.75;;;19.60;49.50;;;;;;5128359;28;20061;-53
2022/11/19 10:37:57;;;;;;;0.80;0.17;;;19.60;49.70;;;;;;5128617;28;20100;-52
2022/11/19 10:40:27;;;;;;;0.75;0.10;;;19.60;49.50;;;;;;5128547;28;20067;-52
2022/11/19 10:43:00;;;;;;;4.18;0.20;;;19.60;49.50;;;;;;5128523;28;20134;-53
2022/11/19 10:45:28;;;;;;;1.10;0.15;;;19.70;49.50;;;;;;5111634;28;20127;-53
2022/11/19 10:48:02;;;;;;;1.23;0.13;;;19.60;49.40;;;;;;5108084;28;20130;-54
2022/11/19 10:50:29;;;;;;;0.32;0.10;;;19.70;49.40;;;;;;5092999;28;20048;-55
2022/11/19 10:52:59;;;;;;;0.20;0.10;;;19.70;49.30;;;;;;5112033;28;20125;-55
2022/11/19 10:55:29;;;;;;;0.82;0.10;;;19.80;49.20;;;;;;5117541;27;20043;-52
2022/11/19 10:58:06;;;;;;;0.20;0.20;;;19.80;49.00;;;;;;5132526;27;20039;-54
2022/11/19 11:00:34;;;;;;;2.72;0.10;;;19.90;49.10;;;;;;5132599;27;20126;-51
2022/11/19 11:03:02;;;;;;;0.40;0.10;;;19.90;49.00;;;;;;5113665;27;20069;-52
2022/11/19 11:05:30;;;;;;;0.57;0.10;;;20.00;49.00;;;;;;5132100;27;20039;-52
2022/11/19 11:07:59;;;;;;;2.28;0.40;;;20.10;48.90;;;;;;5132221;27;20047;-50
2022/11/19 11:10:36;;;;;;;1.38;0.10;;;20.10;48.90;;;;;;5130801;27;20039;-49
2022/11/19 11:16:07;;;;;;;0.50;0.10;;;20.30;48.40;;;;;;5111099;28;20059;-48
2022/11/19 11:18:39;;;;;;;0.85;0.35;;;20.20;48.30;;;;;;5093177;28;20069;-54
2022/11/19 11:21:08;;;;;;;2.00;0.10;;;20.30;48.20;;;;;;5092747;28;20042;-49
2022/11/19 11:23:46;;;;;;;0.22;0.10;;;20.30;48.10;;;;;;5093185;28;20039;-53
2022/11/19 11:26:19;;;;;;;1.25;0.47;;;20.30;48.00;;;;;;5111199;28;20113;-50
2022/11/19 11:29:00;;;;;;;0.55;0.20;;;20.40;47.90;;;;;;5111394;28;20075;-51
2022/11/19 11:31:33;;;;;;;1.95;1.65;;;20.40;47.80;;;;;;5111195;28;20134;-48
2022/11/19 11:34:01;;;;;;;2.42;0.10;;;20.40;47.70;;;;;;5097601;28;20127;-49
2022/11/19 11:36:31;;;;;;;1.90;0.45;;;20.40;47.70;;;;;;5085959;28;20044;-49
2022/11/19 11:39:00;;;;;;;0.47;0.20;;;20.40;47.70;;;;;;5111463;28;20449;-48
2022/11/19 11:41:36;;;;;;;0.17;0.10;;;20.40;47.60;;;;;;5111326;28;20503;-52
2022/11/19 11:44:07;;;;;;;;;;;20.40;47.40;;;;;;5111409;28;20532;-52
2022/11/19 11:46:40;;;;;;;1.05;0.30;;;20.40;47.50;;;;;;5110858;28;19927;-48
2022/11/19 11:49:11;;;;;;;2.20;0.20;;;20.40;47.60;;;;;;5092212;28;20670;-54
2022/11/19 11:51:39;;;;;;;0.95;0.20;;;20.40;47.50;;;;;;5110685;28;20039;-50
2022/11/19 11:54:15;;;;;;;1.65;0.10;;;20.50;47.50;;;;;;5110831;28;20043;-49
2022/11/19 11:56:42;;;;;;;;;;;20.60;47.40;;;;;;5111366;28;20043;-50
2022/11/19 11:59:24;;;;;;;1.48;0.05;;;20.60;47.50;;;;;;5110842;28;20338;-48
2022/11/19 12:01:55;;;;;;;2.45;0.15;;;20.60;47.50;;;;;;5109864;28;20063;-49
2022/11/19 12:04:23;;;;;;;0.70;0.70;;;20.70;47.50;;;;;;5110354;28;20426;-51
2022/11/19 12:06:59;;;;;;;0.20;0.15;;;20.80;47.50;;;;;;5110657;28;20043;-53
2022/11/19 12:09:33;;;;;;;1.73;0.10;;;20.80;47.50;;;;;;5110701;28;20040;-50
2022/11/19 12:12:07;;;;;;;1.27;0.10;;;20.90;47.40;;;;;;5110540;28;20056;-50
2022/11/19 12:14:43;;;;;;;0.65;0.10;;;20.90;47.10;;;;;;5110409;28;20081;-49
2022/11/19 12:17:25;;;;;;;2.60;0.20;;;20.90;46.90;;;;;;5109970;28;20710;-52
2022/11/19 12:20:19;;;;;;;1.52;0.20;;;21.00;46.70;;;;;;5092455;28;20445;-54
2022/11/19 12:22:58;;;;;;;1.45;0.10;;;21.00;46.50;;;;;;5066386;28;20056;-50
2022/11/19 12:25:31;;;;;;;0.28;0.10;;;21.00;46.40;;;;;;5104283;27;20070;-50
2022/11/19 12:28:14;;;;;;;0.30;0.10;;;21.00;46.20;;;;;;5130798;27;20134;-54
2022/11/19 12:30:54;;;;;;;3.05;0.20;;;21.00;46.10;;;;;;5131058;27;20665;-53
2022/11/19 12:33:34;;;;;;;0.40;0.10;;;21.00;46.00;;;;;;5130246;27;20043;-51
2022/11/19 12:36:12;;;;;;;0.35;0.05;;;21.00;45.90;;;;;;5130302;27;20108;-52
2022/11/19 12:38:50;;;;;;;2.17;0.10;;;21.00;45.80;;;;;;5130902;27;20111;-51
2022/11/19 12:41:35;;;;;;;1.20;0.10;;;21.10;45.80;;;;;;5130652;27;20411;-52
2022/11/19 12:44:11;;;;;;;0.43;0.20;;;21.10;45.60;;;;;;5130402;27;20074;-53
2022/11/19 12:46:50;;;;;;;0.67;0.20;;;21.10;45.70;;;;;;5111216;27;20047;-55
2022/11/19 12:49:59;;;;;;;0.13;0.10;;;21.10;45.70;;;;;;5109802;28;20047;-54
2022/11/19 12:52:53;;;;;;;0.70;0.10;;;21.10;45.80;;;;;;5093771;28;20043;-52
2022/11/19 12:55:26;;;;;;;1.35;0.10;;;21.20;45.80;;;;;;5109660;28;20040;-55
2022/11/19 12:58:04;;;;;;;2.00;0.17;;;21.20;45.80;;;;;;5109709;28;20594;-54
2022/11/19 13:00:32;;;;;;;1.30;0.10;;;21.20;45.70;;;;;;5109393;28;20104;-55
2022/11/19 13:03:10;;;;;;;0.50;0.28;;;21.20;45.70;;;;;;5109703;28;20047;-53
2022/11/19 13:05:44;;;;;;;1.08;0.20;;;21.30;45.60;;;;;;5109207;28;20047;-52
2022/11/19 13:08:16;;;;;;;2.25;0.10;;;21.30;45.40;;;;;;5109313;28;20040;-51
2022/11/19 13:10:47;;;;;;;1.48;0.20;;;21.30;45.30;;;;;;5098308;28;20039;-50
2022/11/19 13:13:18;;;;;;;0.93;0.10;;;21.30;45.30;;;;;;5108460;28;20495;-54
2022/11/19 13:15:51;;;;;;;0.55;0.30;;;21.30;45.20;;;;;;5108668;28;20223;-52
2022/11/19 13:18:21;;;;;;;1.92;0.10;;;21.30;45.10;;;;;;5109072;28;20113;-49
2022/11/19 13:20:52;;;;;;;1.85;0.10;;;21.30;45.00;;;;;;5108993;28;20144;-53
2022/11/19 13:23:23;;;;;;;1.65;0.10;;;21.30;44.90;;;;;;5109436;28;20511;-50
2022/11/19 13:25:58;;;;;;;1.30;0.10;;;21.30;44.80;;;;;;5109108;28;20132;-52
2022/11/19 13:28:31;;;;;;;2.70;1.17;;;21.40;44.80;;;;;;5109003;28;20039;-52